Baltic Frost — 9HA2868 — position and weather

sailwx.info

Track history (hours):
 
Tides and Currents Weather Stations Pressure Air Temp Water Temp Dewpoint Dewpoint Depression Visibility Wind Speed Wind Dir Waves Ship Positions

Baltic Frost

Last reported at 2016-May-23 20:30 UTC. Time now 2016-May-24 06:06 UTC.
Position N 58°41' E 004°47'.

Length 182 m; draft 11.1 m.

Type: Ship. MMSI: 256495000.

Date/timePositionNaut miles runAvg speedWind from/ knotsBaromVisibWave heightAir tempDewpointWater temp
2016-May-23 20:30N 58°41' E 004°47'9 9.5
2016-May-23 19:33N 58°34' E 004°59'23 9.8
2016-May-23 17:11N 58°18' E 005°30'6 9.7
2016-May-23 16:33N 58°14' E 005°39'10 9.8
2016-May-23 15:31N 58°07' E 005°53'1010.0
2016-May-23 14:33N 58°01' E 006°07'1010.0
2016-May-23 13:33N 57°55' E 006°21'1111.0
2016-May-23 12:33N 57°48' E 006°38'1212.2
2016-May-23 11:33N 57°46' E 006°60'1312.6
2016-May-23 10:33N 57°45' E 007°24'9512.8
2016-May-23 03:05N 57°50' E 010°22'712.5
2016-May-23 02:33N 57°50' E 010°35'1211.8
2016-May-23 01:33N 57°47' E 010°56'1211.8
2016-May-23 00:33N 57°41' E 011°15'1212.4
2016-May-22 23:33N 57°36' E 011°36'8 8.0
2016-May-22 22:33N 57°41' E 011°48'3 2.5
2016-May-22 21:32N 57°41' E 011°52'0 0.0
2016-May-22 20:31N 57°41' E 011°52'0 0.0
2016-May-22 19:31N 57°41' E 011°52'0 0.0
2016-May-22 18:33N 57°41' E 011°52'0 0.0
2016-May-22 17:33N 57°41' E 011°52'0 0.0
2016-May-22 16:32N 57°41' E 011°52'0 0.0
2016-May-22 15:32N 57°41' E 011°52'0 0.0
2016-May-22 14:32N 57°41' E 011°52'0 0.0
2016-May-22 13:31N 57°41' E 011°52'0 0.0
2016-May-22 12:31N 57°41' E 011°52'0 0.0
2016-May-22 11:33N 57°41' E 011°52'0 0.0
2016-May-22 10:33N 57°41' E 011°52'0 0.0
2016-May-22 09:33N 57°41' E 011°52'0 0.0
2016-May-22 08:32N 57°41' E 011°52'0 0.0
2016-May-22 07:32N 57°41' E 011°52'0 0.0
2016-May-22 06:31N 57°41' E 011°52'0 0.0
2016-May-22 05:31N 57°41' E 011°52'0 0.0
2016-May-22 04:33N 57°41' E 011°52'0 0.0
2016-May-22 03:33N 57°41' E 011°52'0 0.0
2016-May-22 02:32N 57°41' E 011°52'0 0.0
2016-May-22 01:32N 57°41' E 011°52'0 0.0
2016-May-22 00:32N 57°41' E 011°52'0 0.0
2016-May-21 23:31N 57°41' E 011°52'0 0.0
2016-May-21 22:31N 57°41' E 011°52'0 0.0
2016-May-21 21:33N 57°41' E 011°52'0 0.0
2016-May-21 20:33N 57°41' E 011°52'0 0.0
2016-May-21 19:32N 57°41' E 011°52'0 0.0
2016-May-21 18:32N 57°41' E 011°52'0 0.0
2016-May-21 17:32N 57°41' E 011°52'0 0.0
2016-May-21 16:31N 57°41' E 011°52'0 0.0
2016-May-21 15:31N 57°41' E 011°52'0 0.0
2016-May-21 14:33N 57°41' E 011°52'0 0.0
2016-May-21 13:33N 57°41' E 011°52'0 0.0
2016-May-21 12:32N 57°41' E 011°52'0 0.0
2016-May-21 11:32N 57°41' E 011°52'0 0.0
2016-May-21 10:28N 57°41' E 011°52'0 0.0
2016-May-21 09:31N 57°41' E 011°52'1 0.8
2016-May-21 08:34N 57°41' E 011°51'1010.3
2016-May-21 07:34N 57°34' E 011°38'0 0.2
2016-May-21 06:31N 57°34' E 011°38'0 0.0
2016-May-21 05:31N 57°34' E 011°38'0 0.0
2016-May-21 04:33N 57°34' E 011°38'0 0.0
2016-May-21 03:33N 57°34' E 011°38'0 0.0
2016-May-21 02:32N 57°34' E 011°38'0 0.0
2016-May-21 01:32N 57°34' E 011°38'0 0.0
2016-May-21 00:31N 57°34' E 011°38'0 0.0
2016-May-20 23:31N 57°34' E 011°38'0 0.0
2016-May-20 22:31N 57°34' E 011°38'2 2.6
2016-May-20 21:33N 57°35' E 011°34'10 9.5
2016-May-20 20:33N 57°41' E 011°20'1010.1
2016-May-20 19:33N 57°49' E 011°08'9 9.3
2016-May-20 18:33N 57°57' E 011°01'1 1.0
2016-May-20 17:33N 57°57' E 010°59'2 1.7
2016-May-20 16:33N 57°56' E 010°58'2 1.6
2016-May-20 15:33N 57°54' E 010°57'6 5.6
2016-May-20 14:33N 57°50' E 010°50'7 6.7
2016-May-20 13:33N 57°48' E 010°38'282 9.2
2016-May-19 07:04N 54°19' E 004°59'610.0
2016-May-19 06:26N 54°13' E 004°54'1111.2
2016-May-19 05:29N 54°05' E 004°42'124 7.6
2016-May-18 13:08N 52°07' E 003°36'4 1.2
2016-May-18 10:18N 52°08' E 003°42'0 0.0
2016-May-18 09:27N 52°08' E 003°42'0 0.2
2016-May-18 08:32N 52°08' E 003°41'0 0.0
2016-May-18 07:32N 52°08' E 003°41'0 0.0
2016-May-18 06:31N 52°08' E 003°41'0 0.1
2016-May-18 04:09N 52°08' E 003°42'0 0.0
2016-May-18 03:21N 52°08' E 003°42'0 0.0
2016-May-18 01:14N 52°08' E 003°42'0 0.0
2016-May-18 00:29N 52°08' E 003°42'0 0.0
2016-May-17 23:10N 52°08' E 003°42'0 0.0
2016-May-17 22:33N 52°08' E 003°42'0 0.0
2016-May-17 21:31N 52°08' E 003°42'0 0.1
2016-May-17 20:33N 52°08' E 003°42'7 6.8
2016-May-17 19:34N 52°03' E 003°49'1212.0
2016-May-17 18:33N 51°58' E 004°07'4 4.0
2016-May-17 17:33N 51°55' E 004°12'0 0.0
2016-May-17 16:33N 51°55' E 004°12'0 0.0
2016-May-17 15:32N 51°55' E 004°12'0 0.0
2016-May-17 14:32N 51°55' E 004°12'0 0.0
2016-May-17 13:31N 51°55' E 004°12'0 0.0
2016-May-17 12:31N 51°55' E 004°12'0 0.0
2016-May-17 11:28N 51°55' E 004°12'0 0.0
2016-May-17 10:33N 51°55' E 004°12'0 0.0
2016-May-17 09:33N 51°55' E 004°12'0 0.0
2016-May-17 08:23N 51°55' E 004°12'0 0.0
2016-May-17 07:32N 51°55' E 004°12'0 0.0
2016-May-17 06:31N 51°55' E 004°12'0 0.0
2016-May-17 05:31N 51°55' E 004°12'0 0.0
2016-May-17 04:31N 51°55' E 004°12'0 0.0
2016-May-17 03:33N 51°55' E 004°12'0 0.0
2016-May-17 02:30N 51°55' E 004°12'0 0.0
2016-May-17 01:32N 51°55' E 004°12'0 0.0
2016-May-17 00:29N 51°55' E 004°12'0 0.0
2016-May-16 23:28N 51°55' E 004°12'0 0.0
2016-May-16 22:31N 51°55' E 004°12'0 0.0
2016-May-16 21:34N 51°55' E 004°12'0 0.0
2016-May-16 20:33N 51°55' E 004°12'0 0.0
2016-May-16 19:24N 51°55' E 004°12'0 0.0
2016-May-16 18:32N 51°55' E 004°12'0 0.0
2016-May-16 17:26N 51°55' E 004°12'0 0.0
2016-May-16 16:28N 51°55' E 004°12'0 0.0
2016-May-16 15:31N 51°55' E 004°12'0 0.0
2016-May-16 14:34N 51°55' E 004°12'0 0.0
2016-May-16 13:33N 51°56' E 004°12'7 6.6
2016-May-16 12:33N 51°59' E 004°03'8 7.5
2016-May-16 11:33N 51°56' E 004°14'3 2.9
2016-May-16 10:30N 51°53' E 004°16'0 0.0
2016-May-16 09:24N 51°53' E 004°16'0 0.0
2016-May-16 08:29N 51°53' E 004°16'0 0.0
2016-May-16 07:29N 51°53' E 004°16'0 0.0
2016-May-16 06:31N 51°53' E 004°16'0 0.0
2016-May-16 05:28N 51°53' E 004°16'0 0.0
2016-May-16 04:33N 51°53' E 004°16'0 0.0
2016-May-16 03:33N 51°53' E 004°16'0 0.0
2016-May-16 02:33N 51°53' E 004°16'0 0.0
2016-May-16 01:32N 51°53' E 004°16'0 0.0
2016-May-16 00:26N 51°53' E 004°16'0 0.0
2016-May-15 23:31N 51°53' E 004°16'0 0.0
2016-May-15 22:31N 51°53' E 004°16'0 0.0
2016-May-15 21:30N 51°53' E 004°16'0 0.0
2016-May-15 20:33N 51°53' E 004°16'0 0.0
2016-May-15 19:33N 51°53' E 004°16'0 0.0
2016-May-15 18:29N 51°53' E 004°16'0 0.0
2016-May-15 17:32N 51°53' E 004°16'0 0.0
2016-May-15 16:31N 51°53' E 004°16'0 0.0
2016-May-15 15:28N 51°53' E 004°16'0 0.0
2016-May-15 14:33N 51°53' E 004°16'0 0.0
2016-May-15 13:33N 51°53' E 004°16'0 0.0
2016-May-15 12:33N 51°53' E 004°16'0 0.0
2016-May-15 11:26N 51°53' E 004°16'0 0.0
2016-May-15 10:23N 51°53' E 004°16'0 0.0
2016-May-15 09:28N 51°53' E 004°16'0 0.0
2016-May-15 08:31N 51°53' E 004°16'0 0.0
2016-May-15 07:33N 51°53' E 004°16'0 0.0
2016-May-15 06:33N 51°53' E 004°16'0 0.0
2016-May-15 05:29N 51°53' E 004°16'0 0.0
2016-May-15 04:32N 51°53' E 004°16'0 0.0
2016-May-15 03:32N 51°53' E 004°16'0 0.0
2016-May-15 02:25N 51°53' E 004°16'0 0.0
2016-May-15 01:28N 51°53' E 004°16'0 0.1
2016-May-15 00:33N 51°53' E 004°16'1 1.0
2016-May-14 23:33N 51°53' E 004°18'0 0.0
2016-May-14 22:33N 51°53' E 004°18'0 0.0
2016-May-14 21:33N 51°53' E 004°18'0 0.0
2016-May-14 20:29N 51°53' E 004°18'0 0.0
2016-May-14 19:32N 51°53' E 004°18'0 0.0
2016-May-14 18:28N 51°53' E 004°18'0 0.0
2016-May-14 17:31N 51°53' E 004°18'0 0.0
2016-May-14 16:30N 51°53' E 004°18'0 0.0
2016-May-14 15:33N 51°53' E 004°18'0 0.0
2016-May-14 14:33N 51°53' E 004°18'0 0.0
2016-May-14 13:29N 51°53' E 004°18'0 0.0
2016-May-14 12:32N 51°53' E 004°18'0 0.0
2016-May-14 11:28N 51°53' E 004°18'0 0.0
2016-May-14 10:31N 51°53' E 004°18'0 0.0
2016-May-14 09:30N 51°53' E 004°18'0 0.0
2016-May-14 08:33N 51°53' E 004°18'0 0.0
2016-May-14 07:33N 51°53' E 004°18'0 0.0
2016-May-14 06:29N 51°53' E 004°18'0 0.0
2016-May-14 05:32N 51°53' E 004°18'0 0.0
2016-May-14 04:31N 51°53' E 004°18'0 0.0
2016-May-14 03:31N 51°53' E 004°18'0 0.0
2016-May-14 02:30N 51°53' E 004°18'0 0.0
2016-May-14 01:33N 51°53' E 004°18'0 0.0
2016-May-14 00:33N 51°53' E 004°18'0 0.0
2016-May-13 22:32N 51°53' E 004°18'0 0.0
2016-May-13 21:31N 51°53' E 004°18'0 0.0
2016-May-13 20:31N 51°53' E 004°18'  
Track history (hours):
 
Tides and Currents Weather Stations Pressure Air Temp Water Temp Dewpoint Dewpoint Depression Visibility Wind Speed Wind Dir Waves Ship Positions

Baltic Frost

Last reported at 2016-May-23 20:30 UTC. Time now 2016-May-24 06:06 UTC.
Position N 58°41' E 004°47'.

Length 182 m; draft 11.1 m.

Type: Ship. MMSI: 256495000.

Date/timePositionNaut miles runAvg speedWind from/ knotsBaromVisibWave heightAir tempDewpointWater temp
2016-May-23 20:30N 58°41' E 004°47'9 9.5
2016-May-23 19:33N 58°34' E 004°59'23 9.8
2016-May-23 17:11N 58°18' E 005°30'6 9.7
2016-May-23 16:33N 58°14' E 005°39'10 9.8
2016-May-23 15:31N 58°07' E 005°53'1010.0
2016-May-23 14:33N 58°01' E 006°07'1010.0
2016-May-23 13:33N 57°55' E 006°21'1111.0
2016-May-23 12:33N 57°48' E 006°38'1212.2
2016-May-23 11:33N 57°46' E 006°60'1312.6
2016-May-23 10:33N 57°45' E 007°24'9512.8
2016-May-23 03:05N 57°50' E 010°22'712.5
2016-May-23 02:33N 57°50' E 010°35'1211.8
2016-May-23 01:33N 57°47' E 010°56'1211.8
2016-May-23 00:33N 57°41' E 011°15'1212.4
2016-May-22 23:33N 57°36' E 011°36'8 8.0
2016-May-22 22:33N 57°41' E 011°48'3 2.5
2016-May-22 21:32N 57°41' E 011°52'0 0.0
2016-May-22 20:31N 57°41' E 011°52'0 0.0
2016-May-22 19:31N 57°41' E 011°52'0 0.0
2016-May-22 18:33N 57°41' E 011°52'0 0.0
2016-May-22 17:33N 57°41' E 011°52'0 0.0
2016-May-22 16:32N 57°41' E 011°52'0 0.0
2016-May-22 15:32N 57°41' E 011°52'0 0.0
2016-May-22 14:32N 57°41' E 011°52'0 0.0
2016-May-22 13:31N 57°41' E 011°52'0 0.0
2016-May-22 12:31N 57°41' E 011°52'0 0.0
2016-May-22 11:33N 57°41' E 011°52'0 0.0
2016-May-22 10:33N 57°41' E 011°52'0 0.0
2016-May-22 09:33N 57°41' E 011°52'0 0.0
2016-May-22 08:32N 57°41' E 011°52'0 0.0
2016-May-22 07:32N 57°41' E 011°52'0 0.0
2016-May-22 06:31N 57°41' E 011°52'0 0.0
2016-May-22 05:31N 57°41' E 011°52'0 0.0
2016-May-22 04:33N 57°41' E 011°52'0 0.0
2016-May-22 03:33N 57°41' E 011°52'0 0.0
2016-May-22 02:32N 57°41' E 011°52'0 0.0
2016-May-22 01:32N 57°41' E 011°52'0 0.0
2016-May-22 00:32N 57°41' E 011°52'0 0.0
2016-May-21 23:31N 57°41' E 011°52'0 0.0
2016-May-21 22:31N 57°41' E 011°52'0 0.0
2016-May-21 21:33N 57°41' E 011°52'0 0.0
2016-May-21 20:33N 57°41' E 011°52'0 0.0
2016-May-21 19:32N 57°41' E 011°52'0 0.0
2016-May-21 18:32N 57°41' E 011°52'0 0.0
2016-May-21 17:32N 57°41' E 011°52'0 0.0
2016-May-21 16:31N 57°41' E 011°52'0 0.0
2016-May-21 15:31N 57°41' E 011°52'0 0.0
2016-May-21 14:33N 57°41' E 011°52'0 0.0
2016-May-21 13:33N 57°41' E 011°52'0 0.0
2016-May-21 12:32N 57°41' E 011°52'0 0.0
2016-May-21 11:32N 57°41' E 011°52'0 0.0
2016-May-21 10:28N 57°41' E 011°52'0 0.0
2016-May-21 09:31N 57°41' E 011°52'1 0.8
2016-May-21 08:34N 57°41' E 011°51'1010.3
2016-May-21 07:34N 57°34' E 011°38'0 0.2
2016-May-21 06:31N 57°34' E 011°38'0 0.0
2016-May-21 05:31N 57°34' E 011°38'0 0.0
2016-May-21 04:33N 57°34' E 011°38'0 0.0
2016-May-21 03:33N 57°34' E 011°38'0 0.0
2016-May-21 02:32N 57°34' E 011°38'0 0.0
2016-May-21 01:32N 57°34' E 011°38'0 0.0
2016-May-21 00:31N 57°34' E 011°38'0 0.0
2016-May-20 23:31N 57°34' E 011°38'0 0.0
2016-May-20 22:31N 57°34' E 011°38'2 2.6
2016-May-20 21:33N 57°35' E 011°34'10 9.5
2016-May-20 20:33N 57°41' E 011°20'1010.1
2016-May-20 19:33N 57°49' E 011°08'9 9.3
2016-May-20 18:33N 57°57' E 011°01'1 1.0
2016-May-20 17:33N 57°57' E 010°59'2 1.7
2016-May-20 16:33N 57°56' E 010°58'2 1.6
2016-May-20 15:33N 57°54' E 010°57'6 5.6
2016-May-20 14:33N 57°50' E 010°50'7 6.7
2016-May-20 13:33N 57°48' E 010°38'282 9.2
2016-May-19 07:04N 54°19' E 004°59'610.0
2016-May-19 06:26N 54°13' E 004°54'1111.2
2016-May-19 05:29N 54°05' E 004°42'124 7.6
2016-May-18 13:08N 52°07' E 003°36'4 1.2
2016-May-18 10:18N 52°08' E 003°42'0 0.0
2016-May-18 09:27N 52°08' E 003°42'0 0.2
2016-May-18 08:32N 52°08' E 003°41'0 0.0
2016-May-18 07:32N 52°08' E 003°41'0 0.0
2016-May-18 06:31N 52°08' E 003°41'0 0.1
2016-May-18 04:09N 52°08' E 003°42'0 0.0
2016-May-18 03:21N 52°08' E 003°42'0 0.0
2016-May-18 01:14N 52°08' E 003°42'0 0.0
2016-May-18 00:29N 52°08' E 003°42'0 0.0
2016-May-17 23:10N 52°08' E 003°42'0 0.0
2016-May-17 22:33N 52°08' E 003°42'0 0.0
2016-May-17 21:31N 52°08' E 003°42'0 0.1
2016-May-17 20:33N 52°08' E 003°42'7 6.8
2016-May-17 19:34N 52°03' E 003°49'1212.0
2016-May-17 18:33N 51°58' E 004°07'4 4.0
2016-May-17 17:33N 51°55' E 004°12'0 0.0
2016-May-17 16:33N 51°55' E 004°12'0 0.0
2016-May-17 15:32N 51°55' E 004°12'0 0.0
2016-May-17 14:32N 51°55' E 004°12'0 0.0
2016-May-17 13:31N 51°55' E 004°12'0 0.0
2016-May-17 12:31N 51°55' E 004°12'0 0.0
2016-May-17 11:28N 51°55' E 004°12'0 0.0
2016-May-17 10:33N 51°55' E 004°12'0 0.0
2016-May-17 09:33N 51°55' E 004°12'0 0.0
2016-May-17 08:23N 51°55' E 004°12'0 0.0
2016-May-17 07:32N 51°55' E 004°12'0 0.0
2016-May-17 06:31N 51°55' E 004°12'0 0.0
2016-May-17 05:31N 51°55' E 004°12'0 0.0
2016-May-17 04:31N 51°55' E 004°12'0 0.0
2016-May-17 03:33N 51°55' E 004°12'0 0.0
2016-May-17 02:30N 51°55' E 004°12'0 0.0
2016-May-17 01:32N 51°55' E 004°12'0 0.0
2016-May-17 00:29N 51°55' E 004°12'0 0.0
2016-May-16 23:28N 51°55' E 004°12'0 0.0
2016-May-16 22:31N 51°55' E 004°12'0 0.0
2016-May-16 21:34N 51°55' E 004°12'0 0.0
2016-May-16 20:33N 51°55' E 004°12'0 0.0
2016-May-16 19:24N 51°55' E 004°12'0 0.0
2016-May-16 18:32N 51°55' E 004°12'0 0.0
2016-May-16 17:26N 51°55' E 004°12'0 0.0
2016-May-16 16:28N 51°55' E 004°12'0 0.0
2016-May-16 15:31N 51°55' E 004°12'0 0.0
2016-May-16 14:34N 51°55' E 004°12'0 0.0
2016-May-16 13:33N 51°56' E 004°12'7 6.6
2016-May-16 12:33N 51°59' E 004°03'8 7.5
2016-May-16 11:33N 51°56' E 004°14'3 2.9
2016-May-16 10:30N 51°53' E 004°16'0 0.0
2016-May-16 09:24N 51°53' E 004°16'0 0.0
2016-May-16 08:29N 51°53' E 004°16'0 0.0
2016-May-16 07:29N 51°53' E 004°16'0 0.0
2016-May-16 06:31N 51°53' E 004°16'0 0.0
2016-May-16 05:28N 51°53' E 004°16'0 0.0
2016-May-16 04:33N 51°53' E 004°16'0 0.0
2016-May-16 03:33N 51°53' E 004°16'0 0.0
2016-May-16 02:33N 51°53' E 004°16'0 0.0
2016-May-16 01:32N 51°53' E 004°16'0 0.0
2016-May-16 00:26N 51°53' E 004°16'0 0.0
2016-May-15 23:31N 51°53' E 004°16'0 0.0
2016-May-15 22:31N 51°53' E 004°16'0 0.0
2016-May-15 21:30N 51°53' E 004°16'0 0.0
2016-May-15 20:33N 51°53' E 004°16'0 0.0
2016-May-15 19:33N 51°53' E 004°16'0 0.0
2016-May-15 18:29N 51°53' E 004°16'0 0.0
2016-May-15 17:32N 51°53' E 004°16'0 0.0
2016-May-15 16:31N 51°53' E 004°16'0 0.0
2016-May-15 15:28N 51°53' E 004°16'0 0.0
2016-May-15 14:33N 51°53' E 004°16'0 0.0
2016-May-15 13:33N 51°53' E 004°16'0 0.0
2016-May-15 12:33N 51°53' E 004°16'0 0.0
2016-May-15 11:26N 51°53' E 004°16'0 0.0
2016-May-15 10:23N 51°53' E 004°16'0 0.0
2016-May-15 09:28N 51°53' E 004°16'0 0.0
2016-May-15 08:31N 51°53' E 004°16'0 0.0
2016-May-15 07:33N 51°53' E 004°16'0 0.0
2016-May-15 06:33N 51°53' E 004°16'0 0.0
2016-May-15 05:29N 51°53' E 004°16'0 0.0
2016-May-15 04:32N 51°53' E 004°16'0 0.0
2016-May-15 03:32N 51°53' E 004°16'0 0.0
2016-May-15 02:25N 51°53' E 004°16'0 0.0
2016-May-15 01:28N 51°53' E 004°16'0 0.1
2016-May-15 00:33N 51°53' E 004°16'1 1.0
2016-May-14 23:33N 51°53' E 004°18'0 0.0
2016-May-14 22:33N 51°53' E 004°18'0 0.0
2016-May-14 21:33N 51°53' E 004°18'0 0.0
2016-May-14 20:29N 51°53' E 004°18'0 0.0
2016-May-14 19:32N 51°53' E 004°18'0 0.0
2016-May-14 18:28N 51°53' E 004°18'0 0.0
2016-May-14 17:31N 51°53' E 004°18'0 0.0
2016-May-14 16:30N 51°53' E 004°18'0 0.0
2016-May-14 15:33N 51°53' E 004°18'0 0.0
2016-May-14 14:33N 51°53' E 004°18'0 0.0
2016-May-14 13:29N 51°53' E 004°18'0 0.0
2016-May-14 12:32N 51°53' E 004°18'0 0.0
2016-May-14 11:28N 51°53' E 004°18'0 0.0
2016-May-14 10:31N 51°53' E 004°18'0 0.0
2016-May-14 09:30N 51°53' E 004°18'0 0.0
2016-May-14 08:33N 51°53' E 004°18'0 0.0
2016-May-14 07:33N 51°53' E 004°18'0 0.0
2016-May-14 06:29N 51°53' E 004°18'0 0.0
2016-May-14 05:32N 51°53' E 004°18'0 0.0
2016-May-14 04:31N 51°53' E 004°18'0 0.0
2016-May-14 03:31N 51°53' E 004°18'0 0.0
2016-May-14 02:30N 51°53' E 004°18'0 0.0
2016-May-14 01:33N 51°53' E 004°18'0 0.0
2016-May-14 00:33N 51°53' E 004°18'0 0.0
2016-May-13 22:32N 51°53' E 004°18'0 0.0
2016-May-13 21:31N 51°53' E 004°18'0 0.0
2016-May-13 20:31N 51°53' E 004°18'  

Dump ship's entire track history